EST,Max TemperatureF,Mean TemperatureF,Min TemperatureF,Max Dew PointF,MeanDew PointF,Min DewpointF,Max Humidity, Mean Humidity, Min Humidity, Max Sea Level PressureIn, Mean Sea Level PressureIn, Min Sea Level PressureIn, Max VisibilityMiles, Mean VisibilityMiles, Min VisibilityMiles, Max Wind SpeedMPH, Mean Wind SpeedMPH, Max Gust SpeedMPH,PrecipitationIn, CloudCover, Events, WindDirDegrees
2012-12-1,39,36,33,37,29,22,92,74,56,30.56,30.50,30.43,10,9,5,17,11,22,T,8,,34
2012-12-2,50,45,39,47,42,37,100,96,92,30.42,30.27,30.11,8,3,0,12,4,16,0.10,7,Fog-Rain,262
2012-12-3,60,50,39,49,44,37,100,78,55,30.29,30.17,30.09,10,4,0,13,4,16,0.00,2,Fog,274
2012-12-4,57,48,39,54,47,37,100,93,86,30.29,30.17,29.99,10,4,0,14,4,20,0.04,6,Fog-Rain,78
2012-12-5,56,46,35,50,38,20,100,69,38,30.21,30.01,29.90,10,9,2,25,11,32,0.01,4,Rain,290
2012-12-6,42,35,27,22,17,15,75,55,34,30.36,30.30,30.22,10,10,10,18,5,24,0.00,0,,339
2012-12-7,46,37,27,45,36,21,100,85,70,30.28,30.15,30.03,10,8,3,10,2,13,0.10,7,Rain,339
2012-12-8,50,47,44,49,45,43,100,96,92,30.03,29.95,29.87,8,4,2,8,5,13,0.23,8,Rain,313
2012-12-9,49,44,39,47,41,34,100,80,60,30.25,30.14,30.00,10,5,0,20,8,25,0.24,6,Fog-Rain,44
2012-12-10,54,49,43,54,47,43,100,97,93,30.05,29.79,29.56,10,2,0,24,4,28,0.25,8,Fog-Rain,25
2012-12-11,54,46,37,54,37,25,100,75,50,30.20,29.86,29.57,10,9,0,18,7,26,0.01,6,Fog-Rain,339
2012-12-12,44,38,31,28,25,22,78,60,41,30.44,30.35,30.21,10,10,10,12,3,15,0.00,0,,329
2012-12-13,45,37,29,28,26,24,82,66,49,30.48,30.41,30.32,10,10,8,9,4,13,0.00,0,,6
2012-12-14,48,38,27,34,27,24,85,67,49,30.31,30.22,30.13,10,10,7,16,5,23,0.00,0,,258
2012-12-15,47,39,30,36,29,26,82,64,45,30.33,30.27,30.23,10,10,7,14,4,16,0.00,0,,73
2012-12-16,44,41,38,41,38,34,100,87,73,30.25,30.10,29.96,10,6,2,28,16,35,0.19,8,Rain,66
2012-12-17,42,40,38,41,38,37,100,93,86,29.94,29.86,29.68,10,7,2,20,12,26,0.36,8,Rain,36
2012-12-18,51,46,41,48,43,36,100,86,71,29.66,29.51,29.45,10,8,1,20,9,28,0.67,7,Rain,343
2012-12-19,50,44,37,35,27,25,76,58,39,30.10,29.80,29.56,10,10,10,25,11,32,0.00,0,,308
2012-12-20,45,39,32,40,32,24,76,67,57,30.21,30.09,29.89,10,10,7,23,9,30,0.02,5,Rain,100
2012-12-21,57,48,39,55,44,28,100,81,62,29.82,29.31,29.10,10,6,1,33,20,46,0.61,8,Rain,146
2012-12-22,40,38,35,34,25,16,82,63,44,29.77,29.51,29.30,10,10,10,32,17,41,T,6,,274
2012-12-23,42,38,33,27,21,18,56,52,47,29.94,29.88,29.78,10,10,10,20,10,29,0.00,2,,260
2012-12-24,40,35,29,33,23,19,92,70,48,30.09,30.02,29.94,10,9,5,10,4,14,0.07,2,Snow,337
2012-12-25,42,36,30,34,30,23,96,78,59,30.26,30.07,29.92,10,9,5,18,8,23,0.04,5,Rain,354
2012-12-26,38,32,26,35,26,16,96,75,53,30.30,30.05,29.59,10,6,0,36,15,47,0.47,5,Fog-Rain-Snow,43
2012-12-27,40,36,32,37,34,21,92,81,70,29.76,29.42,29.26,10,7,2,35,20,46,0.55,7,Rain-Snow,7
2012-12-28,40,34,27,23,22,19,78,64,50,30.07,30.00,29.81,10,10,10,25,9,35,0.00,0,,320
2012-12-29,34,30,26,31,28,22,100,86,72,30.04,29.71,29.46,10,6,1,17,8,22,0.38,7,Rain-Snow,13
2012-12-30,35,31,27,27,18,12,85,64,43,30.12,29.83,29.54,10,10,2,28,15,36,0.00,0,,298
2012-12-31,38,32,26,26,21,13,69,61,52,30.15,30.04,29.86,10,10,10,20,12,28,0.00,1,,251